European Causeway — C6RG7 — position and weather

sailwx.info

Track history (hours):
 
Tides and Currents Weather Stations Pressure Air Temp Water Temp Dewpoint Dewpoint Depression Visibility Wind Speed Wind Dir Waves Ship Positions

European Causeway

Operator: P & O Irish Sea

Last reported at 2019-Oct-15 20:08 UTC. Time now 2019-Oct-15 23:28 UTC.
Position N 55°00' W 005°14'.

Length 145 m; draft 5.5 m.

Type: Passenger vessel. MMSI: 311027000.

Date/timePositionNaut miles runAvg speedWind from/ knotsBaromVisibWave heightAir tempDewpointWater temp
2019-Oct-15 20:08N 55°00' W 005°14'517.3
2019-Oct-15 19:50N 54°58' W 005°23'618.0
2019-Oct-15 19:29N 54°55' W 005°33'1016.8
2019-Oct-15 18:55N 54°51' W 005°48'0 0.1
2019-Oct-15 17:49N 54°51' W 005°48'0 0.0
2019-Oct-15 17:29N 54°51' W 005°48'1515.9
2019-Oct-15 16:33N 54°58' W 005°25'117.9
2019-Oct-15 16:29N 54°58' W 005°23'6 2.2
2019-Oct-15 13:49N 55°00' W 005°13'1420.3
2019-Oct-15 13:07N 54°55' W 005°36'817.3
2019-Oct-15 12:40N 54°51' W 005°48'0 0.8
2019-Oct-15 12:29N 54°51' W 005°48'0 0.0
2019-Oct-15 11:54N 54°51' W 005°48'0 0.0
2019-Oct-15 11:30N 54°51' W 005°48'2016.2
2019-Oct-15 10:15N 55°00' W 005°16'3 1.4
2019-Oct-15 07:48N 55°01' W 005°11'717.3
2019-Oct-15 07:22N 54°57' W 005°22'718.1
2019-Oct-15 06:59N 54°55' W 005°33'916.7
2019-Oct-15 06:26N 54°51' W 005°48'0 0.2
2019-Oct-15 05:47N 54°51' W 005°48'0 0.0
2019-Oct-15 05:14N 54°51' W 005°48'4 5.9
2019-Oct-15 04:29N 54°53' W 005°41'1018.2
2019-Oct-15 03:55N 54°58' W 005°26'7 1.9
2019-Oct-15 00:16N 55°00' W 005°14'518.1
2019-Oct-15 00:00N 54°58' W 005°22'1017.6
2019-Oct-14 23:27N 54°54' W 005°38'714.9
2019-Oct-14 23:00N 54°51' W 005°48'0 0.1
2019-Oct-14 22:14N 54°51' W 005°48'0 0.0
2019-Oct-14 21:47N 54°51' W 005°48'0 0.0
2019-Oct-14 21:20N 54°51' W 005°48'0 0.0
2019-Oct-14 21:00N 54°51' W 005°48'2015.1
2019-Oct-14 19:39N 55°00' W 005°17'2 0.9
2019-Oct-14 16:56N 55°01' W 005°13'1217.3
2019-Oct-14 16:15N 54°56' W 005°31'517.0
2019-Oct-14 15:56N 54°54' W 005°40'512.2
2019-Oct-14 15:31N 54°51' W 005°48'0 0.0
2019-Oct-14 14:59N 54°51' W 005°48'0 0.0
2019-Oct-14 14:29N 54°51' W 005°48'1512.7
2019-Oct-14 13:19N 54°58' W 005°25'618.1
2019-Oct-14 13:00N 55°00' W 005°16'2 0.8
2019-Oct-14 10:49N 55°00' W 005°13'617.6
2019-Oct-14 10:28N 54°57' W 005°23'1017.7
2019-Oct-14 09:53N 54°53' W 005°39'614.8
2019-Oct-14 09:30N 54°51' W 005°48'0 0.1
2019-Oct-14 08:34N 54°51' W 005°48'0 0.0
2019-Oct-14 08:28N 54°51' W 005°48'3 7.5
2019-Oct-14 08:00N 54°53' W 005°43'1718.3
2019-Oct-14 07:05N 55°00' W 005°16'119.0
2019-Oct-14 07:00N 55°01' W 005°14'1 0.5
2019-Oct-14 04:18N 55°01' W 005°12'618.4
2019-Oct-14 03:57N 54°58' W 005°22'818.1
2019-Oct-14 03:30N 54°55' W 005°35'816.5
2019-Oct-14 03:00N 54°51' W 005°48'0 0.3
2019-Oct-14 02:26N 54°51' W 005°48'0 0.0
2019-Oct-14 01:56N 54°51' W 005°48'0 0.0
2019-Oct-14 01:29N 54°51' W 005°48'0 0.0
2019-Oct-14 00:59N 54°51' W 005°48'710.2
2019-Oct-14 00:19N 54°54' W 005°38'818.6
2019-Oct-13 23:53N 54°58' W 005°25'718.0
2019-Oct-13 23:30N 55°01' W 005°14'1 0.2
2019-Oct-13 20:17N 55°00' W 005°13'718.5
2019-Oct-13 19:55N 54°57' W 005°24'1019.4
2019-Oct-13 19:25N 54°54' W 005°39'613.1
2019-Oct-13 19:00N 54°51' W 005°48'0 0.0
2019-Oct-13 18:18N 54°51' W 005°48'0 0.0
2019-Oct-13 17:54N 54°51' W 005°48'0 0.0
2019-Oct-13 17:28N 54°51' W 005°48'711.1
2019-Oct-13 16:51N 54°54' W 005°38'1418.7
2019-Oct-13 16:07N 54°60' W 005°16'1 0.5
2019-Oct-13 13:42N 55°00' W 005°14'618.9
2019-Oct-13 13:22N 54°57' W 005°24'718.1
2019-Oct-13 12:58N 54°54' W 005°36'816.0
2019-Oct-13 12:29N 54°51' W 005°48'0 0.3
2019-Oct-13 11:59N 54°51' W 005°48'0 0.0
2019-Oct-13 11:14N 54°51' W 005°48'0 0.0
2019-Oct-13 10:59N 54°51' W 005°48'0 0.0
2019-Oct-13 10:29N 54°51' W 005°48'0 0.0
2019-Oct-13 09:56N 54°51' W 005°48'0 0.0
2019-Oct-13 09:29N 54°51' W 005°48'0 0.0
2019-Oct-13 08:59N 54°51' W 005°48'0 0.0
2019-Oct-13 08:29N 54°51' W 005°48'811.9
2019-Oct-13 07:50N 54°55' W 005°36'1218.3
2019-Oct-13 07:09N 55°00' W 005°17'6 0.5
2019-Oct-12 20:02N 54°56' W 005°24'721.2
2019-Oct-12 19:43N 54°54' W 005°35'817.6
2019-Oct-12 19:15N 54°51' W 005°48'0 0.3
2019-Oct-12 18:50N 54°51' W 005°48'0 0.0
2019-Oct-12 18:20N 54°51' W 005°48'0 0.0
2019-Oct-12 17:53N 54°51' W 005°48'0 0.0
2019-Oct-12 17:24N 54°51' W 005°48'1514.4
2019-Oct-12 16:22N 54°58' W 005°25'7 2.7
2019-Oct-12 13:41N 55°00' W 005°13'621.7
2019-Oct-12 13:26N 54°58' W 005°22'1120.5
2019-Oct-12 12:54N 54°54' W 005°39'614.4
2019-Oct-12 12:30N 54°51' W 005°48'0 0.1
2019-Oct-12 11:53N 54°51' W 005°48'0 0.0
2019-Oct-12 11:30N 54°51' W 005°48'2015.6
2019-Oct-12 10:13N 55°00' W 005°17'2 0.9
2019-Oct-12 07:43N 55°00' W 005°13'717.8
2019-Oct-12 07:20N 54°57' W 005°23'918.8
2019-Oct-12 06:52N 54°54' W 005°38'616.8
2019-Oct-12 06:29N 54°51' W 005°48'0 0.2
2019-Oct-12 05:42N 54°51' W 005°48'0 0.0
2019-Oct-12 05:12N 54°51' W 005°48'0 0.0
2019-Oct-12 05:00N 54°51' W 005°48'713.0
2019-Oct-12 04:29N 54°54' W 005°38'1417.8
2019-Oct-12 03:43N 55°00' W 005°16'1 0.3
2019-Oct-12 00:03N 55°00' W 005°15'119.1
2019-Oct-12 00:00N 54°60' W 005°16'1318.4
2019-Oct-11 23:18N 54°54' W 005°37'716.6
2019-Oct-11 22:52N 54°51' W 005°48'0 0.3
2019-Oct-11 22:19N 54°51' W 005°48'0 0.0
2019-Oct-11 21:49N 54°51' W 005°48'0 0.0
2019-Oct-11 21:04N 54°51' W 005°48'0 0.0
2019-Oct-11 21:00N 54°51' W 005°48'2014.4
2019-Oct-11 19:36N 55°00' W 005°17'2 0.6
2019-Oct-11 16:50N 54°60' W 005°14'2120.7
2019-Oct-11 15:49N 54°51' W 005°48'0 0.4
2019-Oct-11 15:30N 54°51' W 005°48'0 0.0
2019-Oct-11 14:37N 54°51' W 005°48'0 0.0
2019-Oct-11 14:30N 54°51' W 005°48'611.6
2019-Oct-11 13:57N 54°54' W 005°38'15 4.6
2019-Oct-11 10:41N 54°60' W 005°14'1420.6
2019-Oct-11 10:00N 54°54' W 005°36'710.3
2019-Oct-11 09:17N 54°51' W 005°48'0 0.0
2019-Oct-11 08:50N 54°51' W 005°48'0 0.1
2019-Oct-11 08:30N 54°51' W 005°48'812.7
2019-Oct-11 07:53N 54°55' W 005°36'1216.7
2019-Oct-11 07:09N 55°00' W 005°17'1 0.4
2019-Oct-11 04:07N 55°00' W 005°15'517.9
2019-Oct-11 03:51N 54°58' W 005°22'818.2
2019-Oct-11 03:24N 54°54' W 005°35'817.0
2019-Oct-11 02:55N 54°51' W 005°48'0 0.2
2019-Oct-11 02:16N 54°51' W 005°48'0 0.0
2019-Oct-11 01:49N 54°51' W 005°48'0 0.0
2019-Oct-11 01:22N 54°51' W 005°48'0 0.0
2019-Oct-11 00:58N 54°51' W 005°48'610.9
2019-Oct-11 00:27N 54°54' W 005°40'917.0
2019-Oct-10 23:54N 54°58' W 005°25'6 1.6
2019-Oct-10 20:15N 55°01' W 005°16'617.7
2019-Oct-10 19:55N 54°59' W 005°26'817.8
2019-Oct-10 19:27N 54°54' W 005°38'715.0
2019-Oct-10 19:00N 54°51' W 005°48'0 0.1
2019-Oct-10 18:25N 54°51' W 005°48'0 0.0
2019-Oct-10 17:55N 54°51' W 005°48'0 0.0
2019-Oct-10 17:30N 54°51' W 005°48'712.5
2019-Oct-10 16:57N 54°54' W 005°38'1419.3
2019-Oct-10 16:13N 55°00' W 005°15'1 0.3
2019-Oct-10 13:46N 55°00' W 005°14'621.1
2019-Oct-10 13:29N 54°57' W 005°24'1518.9
2019-Oct-10 12:41N 54°51' W 005°48'0 1.2
2019-Oct-10 12:30N 54°51' W 005°48'0 0.0
2019-Oct-10 11:58N 54°51' W 005°48'0 0.0
2019-Oct-10 11:30N 54°51' W 005°48'1115.8
2019-Oct-10 10:49N 54°56' W 005°31'1021.2
2019-Oct-10 10:21N 55°00' W 005°16'1 0.4
2019-Oct-10 07:39N 54°60' W 005°14'1216.8
2019-Oct-10 06:55N 54°55' W 005°33'919.4
2019-Oct-10 06:27N 54°51' W 005°48'0 0.2
2019-Oct-10 05:42N 54°51' W 005°48'0 0.0
2019-Oct-10 05:21N 54°51' W 005°48'0 0.0
2019-Oct-10 05:00N 54°51' W 005°48'712.0
2019-Oct-10 04:26N 54°55' W 005°38'919.3
2019-Oct-10 03:59N 54°59' W 005°25'7 2.0
2019-Oct-10 00:14N 55°00' W 005°12'618.5
2019-Oct-09 23:54N 54°58' W 005°22'818.0
2019-Oct-09 23:28N 54°55' W 005°35'816.6
2019-Oct-09 22:58N 54°51' W 005°48'0 0.3
2019-Oct-09 22:28N 54°51' W 005°48'0 0.0
2019-Oct-09 21:49N 54°51' W 005°48'0 0.0
2019-Oct-09 21:16N 54°51' W 005°48'0 0.0
2019-Oct-09 21:00N 54°51' W 005°48'2014.7
2019-Oct-09 19:39N 55°00' W 005°17'2 0.6
2019-Oct-09 16:42N 55°00' W 005°14'519.9
2019-Oct-09 16:26N 54°57' W 005°22'1020.9
2019-Oct-09 15:57N 54°54' W 005°38'613.6
2019-Oct-09 15:30N 54°51' W 005°48'0 0.0
2019-Oct-09 14:24N 54°51' W 005°48'713.5
2019-Oct-09 13:54N 54°54' W 005°38'817.1
2019-Oct-09 13:25N 54°58' W 005°25'7 2.5
2019-Oct-09 10:45N 54°60' W 005°14'518.3
2019-Oct-09 10:28N 54°58' W 005°22'918.0
2019-Oct-09 09:58N 54°54' W 005°36'715.9
2019-Oct-09 09:31N 54°51' W 005°48'0 0.2
2019-Oct-09 08:55N 54°51' W 005°48'0 0.0
2019-Oct-09 08:27N 54°51' W 005°48'612.0
2019-Oct-09 07:55N 54°54' W 005°38'1419.8
2019-Oct-09 07:13N 55°00' W 005°16'2 0.7
2019-Oct-09 04:14N 55°01' W 005°14'716.8
2019-Oct-09 03:49N 54°57' W 005°24'618.4
2019-Oct-09 03:30N 54°55' W 005°33'917.1
2019-Oct-09 02:57N 54°51' W 005°48'0 0.2
2019-Oct-09 02:08N 54°51' W 005°48'0 0.0
2019-Oct-09 01:50N 54°51' W 005°48'0 0.0
2019-Oct-09 01:20N 54°51' W 005°48'0 0.0
2019-Oct-09 00:57N 54°51' W 005°48'610.3
2019-Oct-09 00:24N 54°54' W 005°40'917.1
2019-Oct-08 23:52N 54°58' W 005°26'616.4
2019-Oct-08 23:29N 55°00' W 005°16'1 0.3
2019-Oct-08 20:15N 54°60' W 005°14'1417.9
2019-Oct-08 19:29N 54°54' W 005°36'816.2
2019-Oct-08 19:01N 54°51' W 005°48'0 0.1
2019-Oct-08 18:04N 54°51' W 005°48'0 0.0
2019-Oct-08 17:52N 54°51' W 005°48'0 0.0
2019-Oct-08 17:30N 54°51' W 005°48'2018.5
2019-Oct-08 16:24N 55°00' W 005°16'2 0.9
2019-Oct-08 13:48N 55°01' W 005°12'717.7
2019-Oct-08 13:23N 54°57' W 005°24'818.2
2019-Oct-08 12:57N 54°54' W 005°37'716.3
2019-Oct-08 12:30N 54°51' W 005°48'0 0.1
2019-Oct-08 11:44N 54°51' W 005°48'0 0.0
2019-Oct-08 11:29N 54°51' W 005°48'5 8.7
2019-Oct-08 10:52N 54°54' W 005°40'1119.9
2019-Oct-08 10:20N 54°58' W 005°24'5 2.1
2019-Oct-08 07:41N 54°60' W 005°14'617.8
2019-Oct-08 07:21N 54°57' W 005°24'818.2
2019-Oct-08 06:54N 54°54' W 005°37'716.7
2019-Oct-08 06:29N 54°51' W 005°48'0 0.3
2019-Oct-08 05:57N 54°51' W 005°48'0 0.0
2019-Oct-08 05:27N 54°51' W 005°48'0 0.0
2019-Oct-08 05:00N 54°51' W 005°48'713.9
2019-Oct-08 04:29N 54°54' W 005°37'1318.3
2019-Oct-08 03:47N 55°00' W 005°17'3 0.8
2019-Oct-08 00:13N 55°01' W 005°13'617.7
2019-Oct-07 23:52N 54°57' W 005°22'718.4
2019-Oct-07 23:29N 54°54' W 005°32'916.3
2019-Oct-07 22:54N 54°51' W 005°48'0 0.2
2019-Oct-07 21:59N 54°51' W 005°48'0 0.0
2019-Oct-07 21:17N 54°51' W 005°48'0 0.0
2019-Oct-07 21:00N 54°51' W 005°48'1515.2
2019-Oct-07 20:01N 54°59' W 005°26'019.2
2019-Oct-07 20:00N 54°59' W 005°25'7 2.2
2019-Oct-07 16:48N 55°00' W 005°13'617.2
2019-Oct-07 16:28N 54°58' W 005°22'918.1
2019-Oct-07 16:00N 54°54' W 005°36'815.9
2019-Oct-07 15:30N 54°51' W 005°48'0 0.2
2019-Oct-07 14:57N 54°51' W 005°48'0 0.0
2019-Oct-07 14:30N 54°51' W 005°48'610.8
2019-Oct-07 13:57N 54°54' W 005°39'1416.6
2019-Oct-07 13:05N 55°00' W 005°16'116.1
2019-Oct-07 13:00N 55°01' W 005°14'0 0.0
2019-Oct-07 10:43N 55°01' W 005°14'720.5
2019-Oct-07 10:23N 54°57' W 005°24'820.4
2019-Oct-07 10:00N 54°54' W 005°37'714.7
2019-Oct-07 09:30N 54°51' W 005°48'0 0.0
2019-Oct-07 08:45N 54°51' W 005°48'0 0.0
2019-Oct-07 08:28N 54°51' W 005°48'812.2
2019-Oct-07 07:50N 54°55' W 005°36'718.0
2019-Oct-07 07:25N 54°59' W 005°25'6 1.9
2019-Oct-07 04:07N 54°60' W 005°14'520.6
2019-Oct-07 03:53N 54°57' W 005°21'820.8
2019-Oct-07 03:30N 54°54' W 005°35'816.9
2019-Oct-07 03:00N 54°51' W 005°48'0 0.2
2019-Oct-07 01:57N 54°51' W 005°48'0 0.0
2019-Oct-07 01:24N 54°51' W 005°48'0 0.0
2019-Oct-07 00:58N 54°51' W 005°48'610.1
2019-Oct-07 00:25N 54°54' W 005°40'917.7
2019-Oct-06 23:54N 54°58' W 005°26'718.2
2019-Oct-06 23:30N 55°01' W 005°14'1 0.3
2019-Oct-06 20:15N 54°60' W 005°14'618.2
2019-Oct-06 19:54N 54°57' W 005°24'818.0
2019-Oct-06 19:29N 54°54' W 005°36'815.8
2019-Oct-06 19:00N 54°51' W 005°48'0 0.2
2019-Oct-06 18:24N 54°51' W 005°48'0 0.0
2019-Oct-06 17:57N 54°51' W 005°48'0 0.0
2019-Oct-06 17:27N 54°51' W 005°48'2014.4
2019-Oct-06 16:04N 54°60' W 005°17'116.9
2019-Oct-06 16:00N 55°00' W 005°16'2 0.9
2019-Oct-06 13:50N 55°01' W 005°12'617.1
2019-Oct-06 13:27N 54°58' W 005°22'1017.8
2019-Oct-06 12:54N 54°54' W 005°38'716.1
2019-Oct-06 12:30N 54°51' W 005°48'0 0.2
2019-Oct-06 12:00N 54°51' W 005°48'0 0.0
2019-Oct-06 11:30N 54°51' W 005°48'0 0.0
2019-Oct-06 11:00N 54°51' W 005°48'0 0.0
2019-Oct-06 10:30N 54°51' W 005°48'0 0.0
2019-Oct-06 10:01N 54°51' W 005°48'0 0.0
2019-Oct-06 09:30N 54°51' W 005°48'0 0.0
2019-Oct-06 09:00N 54°51' W 005°48'0 0.0
2019-Oct-06 08:29N 54°51' W 005°48'611.4
2019-Oct-06 07:58N 54°54' W 005°39'1417.3
2019-Oct-06 07:09N 55°00' W 005°17'2 0.2
2019-Oct-05 20:34N 55°00' W 005°13'222.9
2019-Oct-05 20:30N 54°59' W 005°16'  
Track history (hours):
 
Tides and Currents Weather Stations Pressure Air Temp Water Temp Dewpoint Dewpoint Depression Visibility Wind Speed Wind Dir Waves Ship Positions

European Causeway

Operator: P & O Irish Sea

Last reported at 2019-Oct-15 20:08 UTC. Time now 2019-Oct-15 23:28 UTC.
Position N 55°00' W 005°14'.

Length 145 m; draft 5.5 m.

Type: Passenger vessel. MMSI: 311027000.

Date/timePositionNaut miles runAvg speedWind from/ knotsBaromVisibWave heightAir tempDewpointWater temp
2019-Oct-15 20:08N 55°00' W 005°14'517.3
2019-Oct-15 19:50N 54°58' W 005°23'618.0
2019-Oct-15 19:29N 54°55' W 005°33'1016.8
2019-Oct-15 18:55N 54°51' W 005°48'0 0.1
2019-Oct-15 17:49N 54°51' W 005°48'0 0.0
2019-Oct-15 17:29N 54°51' W 005°48'1515.9
2019-Oct-15 16:33N 54°58' W 005°25'117.9
2019-Oct-15 16:29N 54°58' W 005°23'6 2.2
2019-Oct-15 13:49N 55°00' W 005°13'1420.3
2019-Oct-15 13:07N 54°55' W 005°36'817.3
2019-Oct-15 12:40N 54°51' W 005°48'0 0.8
2019-Oct-15 12:29N 54°51' W 005°48'0 0.0
2019-Oct-15 11:54N 54°51' W 005°48'0 0.0
2019-Oct-15 11:30N 54°51' W 005°48'2016.2
2019-Oct-15 10:15N 55°00' W 005°16'3 1.4
2019-Oct-15 07:48N 55°01' W 005°11'717.3
2019-Oct-15 07:22N 54°57' W 005°22'718.1
2019-Oct-15 06:59N 54°55' W 005°33'916.7
2019-Oct-15 06:26N 54°51' W 005°48'0 0.2
2019-Oct-15 05:47N 54°51' W 005°48'0 0.0
2019-Oct-15 05:14N 54°51' W 005°48'4 5.9
2019-Oct-15 04:29N 54°53' W 005°41'1018.2
2019-Oct-15 03:55N 54°58' W 005°26'7 1.9
2019-Oct-15 00:16N 55°00' W 005°14'518.1
2019-Oct-15 00:00N 54°58' W 005°22'1017.6
2019-Oct-14 23:27N 54°54' W 005°38'714.9
2019-Oct-14 23:00N 54°51' W 005°48'0 0.1
2019-Oct-14 22:14N 54°51' W 005°48'0 0.0
2019-Oct-14 21:47N 54°51' W 005°48'0 0.0
2019-Oct-14 21:20N 54°51' W 005°48'0 0.0
2019-Oct-14 21:00N 54°51' W 005°48'2015.1
2019-Oct-14 19:39N 55°00' W 005°17'2 0.9
2019-Oct-14 16:56N 55°01' W 005°13'1217.3
2019-Oct-14 16:15N 54°56' W 005°31'517.0
2019-Oct-14 15:56N 54°54' W 005°40'512.2
2019-Oct-14 15:31N 54°51' W 005°48'0 0.0
2019-Oct-14 14:59N 54°51' W 005°48'0 0.0
2019-Oct-14 14:29N 54°51' W 005°48'1512.7
2019-Oct-14 13:19N 54°58' W 005°25'618.1
2019-Oct-14 13:00N 55°00' W 005°16'2 0.8
2019-Oct-14 10:49N 55°00' W 005°13'617.6
2019-Oct-14 10:28N 54°57' W 005°23'1017.7
2019-Oct-14 09:53N 54°53' W 005°39'614.8
2019-Oct-14 09:30N 54°51' W 005°48'0 0.1
2019-Oct-14 08:34N 54°51' W 005°48'0 0.0
2019-Oct-14 08:28N 54°51' W 005°48'3 7.5
2019-Oct-14 08:00N 54°53' W 005°43'1718.3
2019-Oct-14 07:05N 55°00' W 005°16'119.0
2019-Oct-14 07:00N 55°01' W 005°14'1 0.5
2019-Oct-14 04:18N 55°01' W 005°12'618.4
2019-Oct-14 03:57N 54°58' W 005°22'818.1
2019-Oct-14 03:30N 54°55' W 005°35'816.5
2019-Oct-14 03:00N 54°51' W 005°48'0 0.3
2019-Oct-14 02:26N 54°51' W 005°48'0 0.0
2019-Oct-14 01:56N 54°51' W 005°48'0 0.0
2019-Oct-14 01:29N 54°51' W 005°48'0 0.0
2019-Oct-14 00:59N 54°51' W 005°48'710.2
2019-Oct-14 00:19N 54°54' W 005°38'818.6
2019-Oct-13 23:53N 54°58' W 005°25'718.0
2019-Oct-13 23:30N 55°01' W 005°14'1 0.2
2019-Oct-13 20:17N 55°00' W 005°13'718.5
2019-Oct-13 19:55N 54°57' W 005°24'1019.4
2019-Oct-13 19:25N 54°54' W 005°39'613.1
2019-Oct-13 19:00N 54°51' W 005°48'0 0.0
2019-Oct-13 18:18N 54°51' W 005°48'0 0.0
2019-Oct-13 17:54N 54°51' W 005°48'0 0.0
2019-Oct-13 17:28N 54°51' W 005°48'711.1
2019-Oct-13 16:51N 54°54' W 005°38'1418.7
2019-Oct-13 16:07N 54°60' W 005°16'1 0.5
2019-Oct-13 13:42N 55°00' W 005°14'618.9
2019-Oct-13 13:22N 54°57' W 005°24'718.1
2019-Oct-13 12:58N 54°54' W 005°36'816.0
2019-Oct-13 12:29N 54°51' W 005°48'0 0.3
2019-Oct-13 11:59N 54°51' W 005°48'0 0.0
2019-Oct-13 11:14N 54°51' W 005°48'0 0.0
2019-Oct-13 10:59N 54°51' W 005°48'0 0.0
2019-Oct-13 10:29N 54°51' W 005°48'0 0.0
2019-Oct-13 09:56N 54°51' W 005°48'0 0.0
2019-Oct-13 09:29N 54°51' W 005°48'0 0.0
2019-Oct-13 08:59N 54°51' W 005°48'0 0.0
2019-Oct-13 08:29N 54°51' W 005°48'811.9
2019-Oct-13 07:50N 54°55' W 005°36'1218.3
2019-Oct-13 07:09N 55°00' W 005°17'6 0.5
2019-Oct-12 20:02N 54°56' W 005°24'721.2
2019-Oct-12 19:43N 54°54' W 005°35'817.6
2019-Oct-12 19:15N 54°51' W 005°48'0 0.3
2019-Oct-12 18:50N 54°51' W 005°48'0 0.0
2019-Oct-12 18:20N 54°51' W 005°48'0 0.0
2019-Oct-12 17:53N 54°51' W 005°48'0 0.0
2019-Oct-12 17:24N 54°51' W 005°48'1514.4
2019-Oct-12 16:22N 54°58' W 005°25'7 2.7
2019-Oct-12 13:41N 55°00' W 005°13'621.7
2019-Oct-12 13:26N 54°58' W 005°22'1120.5
2019-Oct-12 12:54N 54°54' W 005°39'614.4
2019-Oct-12 12:30N 54°51' W 005°48'0 0.1
2019-Oct-12 11:53N 54°51' W 005°48'0 0.0
2019-Oct-12 11:30N 54°51' W 005°48'2015.6
2019-Oct-12 10:13N 55°00' W 005°17'2 0.9
2019-Oct-12 07:43N 55°00' W 005°13'717.8
2019-Oct-12 07:20N 54°57' W 005°23'918.8
2019-Oct-12 06:52N 54°54' W 005°38'616.8
2019-Oct-12 06:29N 54°51' W 005°48'0 0.2
2019-Oct-12 05:42N 54°51' W 005°48'0 0.0
2019-Oct-12 05:12N 54°51' W 005°48'0 0.0
2019-Oct-12 05:00N 54°51' W 005°48'713.0
2019-Oct-12 04:29N 54°54' W 005°38'1417.8
2019-Oct-12 03:43N 55°00' W 005°16'1 0.3
2019-Oct-12 00:03N 55°00' W 005°15'119.1
2019-Oct-12 00:00N 54°60' W 005°16'1318.4
2019-Oct-11 23:18N 54°54' W 005°37'716.6
2019-Oct-11 22:52N 54°51' W 005°48'0 0.3
2019-Oct-11 22:19N 54°51' W 005°48'0 0.0
2019-Oct-11 21:49N 54°51' W 005°48'0 0.0
2019-Oct-11 21:04N 54°51' W 005°48'0 0.0
2019-Oct-11 21:00N 54°51' W 005°48'2014.4
2019-Oct-11 19:36N 55°00' W 005°17'2 0.6
2019-Oct-11 16:50N 54°60' W 005°14'2120.7
2019-Oct-11 15:49N 54°51' W 005°48'0 0.4
2019-Oct-11 15:30N 54°51' W 005°48'0 0.0
2019-Oct-11 14:37N 54°51' W 005°48'0 0.0
2019-Oct-11 14:30N 54°51' W 005°48'611.6
2019-Oct-11 13:57N 54°54' W 005°38'15 4.6
2019-Oct-11 10:41N 54°60' W 005°14'1420.6
2019-Oct-11 10:00N 54°54' W 005°36'710.3
2019-Oct-11 09:17N 54°51' W 005°48'0 0.0
2019-Oct-11 08:50N 54°51' W 005°48'0 0.1
2019-Oct-11 08:30N 54°51' W 005°48'812.7
2019-Oct-11 07:53N 54°55' W 005°36'1216.7
2019-Oct-11 07:09N 55°00' W 005°17'1 0.4
2019-Oct-11 04:07N 55°00' W 005°15'517.9
2019-Oct-11 03:51N 54°58' W 005°22'818.2
2019-Oct-11 03:24N 54°54' W 005°35'817.0
2019-Oct-11 02:55N 54°51' W 005°48'0 0.2
2019-Oct-11 02:16N 54°51' W 005°48'0 0.0
2019-Oct-11 01:49N 54°51' W 005°48'0 0.0
2019-Oct-11 01:22N 54°51' W 005°48'0 0.0
2019-Oct-11 00:58N 54°51' W 005°48'610.9
2019-Oct-11 00:27N 54°54' W 005°40'917.0
2019-Oct-10 23:54N 54°58' W 005°25'6 1.6
2019-Oct-10 20:15N 55°01' W 005°16'617.7
2019-Oct-10 19:55N 54°59' W 005°26'817.8
2019-Oct-10 19:27N 54°54' W 005°38'715.0
2019-Oct-10 19:00N 54°51' W 005°48'0 0.1
2019-Oct-10 18:25N 54°51' W 005°48'0 0.0
2019-Oct-10 17:55N 54°51' W 005°48'0 0.0
2019-Oct-10 17:30N 54°51' W 005°48'712.5
2019-Oct-10 16:57N 54°54' W 005°38'1419.3
2019-Oct-10 16:13N 55°00' W 005°15'1 0.3
2019-Oct-10 13:46N 55°00' W 005°14'621.1
2019-Oct-10 13:29N 54°57' W 005°24'1518.9
2019-Oct-10 12:41N 54°51' W 005°48'0 1.2
2019-Oct-10 12:30N 54°51' W 005°48'0 0.0
2019-Oct-10 11:58N 54°51' W 005°48'0 0.0
2019-Oct-10 11:30N 54°51' W 005°48'1115.8
2019-Oct-10 10:49N 54°56' W 005°31'1021.2
2019-Oct-10 10:21N 55°00' W 005°16'1 0.4
2019-Oct-10 07:39N 54°60' W 005°14'1216.8
2019-Oct-10 06:55N 54°55' W 005°33'919.4
2019-Oct-10 06:27N 54°51' W 005°48'0 0.2
2019-Oct-10 05:42N 54°51' W 005°48'0 0.0
2019-Oct-10 05:21N 54°51' W 005°48'0 0.0
2019-Oct-10 05:00N 54°51' W 005°48'712.0
2019-Oct-10 04:26N 54°55' W 005°38'919.3
2019-Oct-10 03:59N 54°59' W 005°25'7 2.0
2019-Oct-10 00:14N 55°00' W 005°12'618.5
2019-Oct-09 23:54N 54°58' W 005°22'818.0
2019-Oct-09 23:28N 54°55' W 005°35'816.6
2019-Oct-09 22:58N 54°51' W 005°48'0 0.3
2019-Oct-09 22:28N 54°51' W 005°48'0 0.0
2019-Oct-09 21:49N 54°51' W 005°48'0 0.0
2019-Oct-09 21:16N 54°51' W 005°48'0 0.0
2019-Oct-09 21:00N 54°51' W 005°48'2014.7
2019-Oct-09 19:39N 55°00' W 005°17'2 0.6
2019-Oct-09 16:42N 55°00' W 005°14'519.9
2019-Oct-09 16:26N 54°57' W 005°22'1020.9
2019-Oct-09 15:57N 54°54' W 005°38'613.6
2019-Oct-09 15:30N 54°51' W 005°48'0 0.0
2019-Oct-09 14:24N 54°51' W 005°48'713.5
2019-Oct-09 13:54N 54°54' W 005°38'817.1
2019-Oct-09 13:25N 54°58' W 005°25'7 2.5
2019-Oct-09 10:45N 54°60' W 005°14'518.3
2019-Oct-09 10:28N 54°58' W 005°22'918.0
2019-Oct-09 09:58N 54°54' W 005°36'715.9
2019-Oct-09 09:31N 54°51' W 005°48'0 0.2
2019-Oct-09 08:55N 54°51' W 005°48'0 0.0
2019-Oct-09 08:27N 54°51' W 005°48'612.0
2019-Oct-09 07:55N 54°54' W 005°38'1419.8
2019-Oct-09 07:13N 55°00' W 005°16'2 0.7
2019-Oct-09 04:14N 55°01' W 005°14'716.8
2019-Oct-09 03:49N 54°57' W 005°24'618.4
2019-Oct-09 03:30N 54°55' W 005°33'917.1
2019-Oct-09 02:57N 54°51' W 005°48'0 0.2
2019-Oct-09 02:08N 54°51' W 005°48'0 0.0
2019-Oct-09 01:50N 54°51' W 005°48'0 0.0
2019-Oct-09 01:20N 54°51' W 005°48'0 0.0
2019-Oct-09 00:57N 54°51' W 005°48'610.3
2019-Oct-09 00:24N 54°54' W 005°40'917.1
2019-Oct-08 23:52N 54°58' W 005°26'616.4
2019-Oct-08 23:29N 55°00' W 005°16'1 0.3
2019-Oct-08 20:15N 54°60' W 005°14'1417.9
2019-Oct-08 19:29N 54°54' W 005°36'816.2
2019-Oct-08 19:01N 54°51' W 005°48'0 0.1
2019-Oct-08 18:04N 54°51' W 005°48'0 0.0
2019-Oct-08 17:52N 54°51' W 005°48'0 0.0
2019-Oct-08 17:30N 54°51' W 005°48'2018.5
2019-Oct-08 16:24N 55°00' W 005°16'2 0.9
2019-Oct-08 13:48N 55°01' W 005°12'717.7
2019-Oct-08 13:23N 54°57' W 005°24'818.2
2019-Oct-08 12:57N 54°54' W 005°37'716.3
2019-Oct-08 12:30N 54°51' W 005°48'0 0.1
2019-Oct-08 11:44N 54°51' W 005°48'0 0.0
2019-Oct-08 11:29N 54°51' W 005°48'5 8.7
2019-Oct-08 10:52N 54°54' W 005°40'1119.9
2019-Oct-08 10:20N 54°58' W 005°24'5 2.1
2019-Oct-08 07:41N 54°60' W 005°14'617.8
2019-Oct-08 07:21N 54°57' W 005°24'818.2
2019-Oct-08 06:54N 54°54' W 005°37'716.7
2019-Oct-08 06:29N 54°51' W 005°48'0 0.3
2019-Oct-08 05:57N 54°51' W 005°48'0 0.0
2019-Oct-08 05:27N 54°51' W 005°48'0 0.0
2019-Oct-08 05:00N 54°51' W 005°48'713.9
2019-Oct-08 04:29N 54°54' W 005°37'1318.3
2019-Oct-08 03:47N 55°00' W 005°17'3 0.8
2019-Oct-08 00:13N 55°01' W 005°13'617.7
2019-Oct-07 23:52N 54°57' W 005°22'718.4
2019-Oct-07 23:29N 54°54' W 005°32'916.3
2019-Oct-07 22:54N 54°51' W 005°48'0 0.2
2019-Oct-07 21:59N 54°51' W 005°48'0 0.0
2019-Oct-07 21:17N 54°51' W 005°48'0 0.0
2019-Oct-07 21:00N 54°51' W 005°48'1515.2
2019-Oct-07 20:01N 54°59' W 005°26'019.2
2019-Oct-07 20:00N 54°59' W 005°25'7 2.2
2019-Oct-07 16:48N 55°00' W 005°13'617.2
2019-Oct-07 16:28N 54°58' W 005°22'918.1
2019-Oct-07 16:00N 54°54' W 005°36'815.9
2019-Oct-07 15:30N 54°51' W 005°48'0 0.2
2019-Oct-07 14:57N 54°51' W 005°48'0 0.0
2019-Oct-07 14:30N 54°51' W 005°48'610.8
2019-Oct-07 13:57N 54°54' W 005°39'1416.6
2019-Oct-07 13:05N 55°00' W 005°16'116.1
2019-Oct-07 13:00N 55°01' W 005°14'0 0.0
2019-Oct-07 10:43N 55°01' W 005°14'720.5
2019-Oct-07 10:23N 54°57' W 005°24'820.4
2019-Oct-07 10:00N 54°54' W 005°37'714.7
2019-Oct-07 09:30N 54°51' W 005°48'0 0.0
2019-Oct-07 08:45N 54°51' W 005°48'0 0.0
2019-Oct-07 08:28N 54°51' W 005°48'812.2
2019-Oct-07 07:50N 54°55' W 005°36'718.0
2019-Oct-07 07:25N 54°59' W 005°25'6 1.9
2019-Oct-07 04:07N 54°60' W 005°14'520.6
2019-Oct-07 03:53N 54°57' W 005°21'820.8
2019-Oct-07 03:30N 54°54' W 005°35'816.9
2019-Oct-07 03:00N 54°51' W 005°48'0 0.2
2019-Oct-07 01:57N 54°51' W 005°48'0 0.0
2019-Oct-07 01:24N 54°51' W 005°48'0 0.0
2019-Oct-07 00:58N 54°51' W 005°48'610.1
2019-Oct-07 00:25N 54°54' W 005°40'917.7
2019-Oct-06 23:54N 54°58' W 005°26'718.2
2019-Oct-06 23:30N 55°01' W 005°14'1 0.3
2019-Oct-06 20:15N 54°60' W 005°14'618.2
2019-Oct-06 19:54N 54°57' W 005°24'818.0
2019-Oct-06 19:29N 54°54' W 005°36'815.8
2019-Oct-06 19:00N 54°51' W 005°48'0 0.2
2019-Oct-06 18:24N 54°51' W 005°48'0 0.0
2019-Oct-06 17:57N 54°51' W 005°48'0 0.0
2019-Oct-06 17:27N 54°51' W 005°48'2014.4
2019-Oct-06 16:04N 54°60' W 005°17'116.9
2019-Oct-06 16:00N 55°00' W 005°16'2 0.9
2019-Oct-06 13:50N 55°01' W 005°12'617.1
2019-Oct-06 13:27N 54°58' W 005°22'1017.8
2019-Oct-06 12:54N 54°54' W 005°38'716.1
2019-Oct-06 12:30N 54°51' W 005°48'0 0.2
2019-Oct-06 12:00N 54°51' W 005°48'0 0.0
2019-Oct-06 11:30N 54°51' W 005°48'0 0.0
2019-Oct-06 11:00N 54°51' W 005°48'0 0.0
2019-Oct-06 10:30N 54°51' W 005°48'0 0.0
2019-Oct-06 10:01N 54°51' W 005°48'0 0.0
2019-Oct-06 09:30N 54°51' W 005°48'0 0.0
2019-Oct-06 09:00N 54°51' W 005°48'0 0.0
2019-Oct-06 08:29N 54°51' W 005°48'611.4
2019-Oct-06 07:58N 54°54' W 005°39'1417.3
2019-Oct-06 07:09N 55°00' W 005°17'2 0.2
2019-Oct-05 20:34N 55°00' W 005°13'222.9
2019-Oct-05 20:30N 54°59' W 005°16'  

Dump ship's entire track history